Time;durP1;ratioP1;P1;durP2;ratioP2;P2;SDS_P1;SDS_P2;PMS_P1;PMS_P2;Temp;Humidity;BMP_temperature;BMP_pressure;BME280_temperature;BME280_humidity;BME280_pressure;Samples;Min_cycle;Max_cycle;Signal;HPM_P1;HPM_P2
2023/06/12 00:01:07;;;;;;;8.10;6.00;;;;;;;;;;4992641;28;20034;-57
2023/06/12 00:03:33;;;;;;;9.80;6.10;;;;;;;;;;5041232;28;20041;-55
2023/06/12 00:05:59;;;;;;;8.35;5.70;;;;;;;;;;5005996;28;20104;-52
2023/06/12 00:08:29;;;;;;;9.48;5.75;;;;;;;;;;4996081;28;21707;-55
2023/06/12 00:10:55;;;;;;;7.43;5.78;;;;;;;;;;5032612;28;20030;-54
2023/06/12 00:13:21;;;;;;;7.15;5.35;;;;;;;;;;5010564;28;20386;-57
2023/06/12 00:15:47;;;;;;;9.82;5.90;;;;;;;;;;5011418;28;20038;-53
2023/06/12 00:18:12;;;;;;;7.90;5.38;;;;;;;;;;5011108;28;20116;-52
2023/06/12 00:20:38;;;;;;;7.90;6.00;;;;;;;;;;4998929;28;20268;-52
2023/06/12 00:23:04;;;;;;;9.35;6.05;;;;;;;;;;5016395;28;20038;-54
2023/06/12 00:25:30;;;;;;;9.60;6.22;;;;;;;;;;4990566;28;20035;-53
2023/06/12 00:27:55;;;;;;;7.80;5.38;;;;;;;;;;4990341;28;20038;-53
2023/06/12 00:30:21;;;;;;;8.27;5.47;;;;;;;;;;5007550;28;20382;-57
2023/06/12 00:32:47;;;;;;;10.77;6.00;;;;;;;;;;5006966;28;20040;-55
2023/06/12 00:35:18;;;;;;;8.68;5.70;;;;;;;;;;5007441;28;20077;-56
2023/06/12 00:37:45;;;;;;;13.40;5.97;;;;;;;;;;5014573;28;20038;-55
2023/06/12 00:40:11;;;;;;;8.55;5.57;;;;;;;;;;5010811;28;20415;-54
2023/06/12 00:42:45;;;;;;;10.23;5.90;;;;;;;;;;5011364;28;20069;-55
2023/06/12 00:45:14;;;;;;;7.57;5.72;;;;;;;;;;5012002;28;20467;-55
2023/06/12 00:47:40;;;;;;;9.35;5.65;;;;;;;;;;5008345;28;20622;-53
2023/06/12 00:50:12;;;;;;;9.65;5.75;;;;;;;;;;5005807;28;20033;-55
2023/06/12 00:52:45;;;;;;;9.77;6.05;;;;;;;;;;5009971;28;20498;-55
2023/06/12 00:55:11;;;;;;;8.40;5.55;;;;;;;;;;5002051;28;20061;-56
2023/06/12 00:57:38;;;;;;;8.57;5.80;;;;;;;;;;4999632;28;20065;-56
2023/06/12 01:00:06;;;;;;;12.32;6.13;;;;;;;;;;5006183;28;20475;-52
2023/06/12 01:02:34;;;;;;;8.65;5.53;;;;;;;;;;5023533;28;20072;-56
2023/06/12 01:05:00;;;;;;;10.30;6.10;;;;;;;;;;5002751;28;20065;-53
2023/06/12 01:07:40;;;;;;;8.13;6.00;;;;;;;;;;4993330;28;20070;-51
2023/06/12 01:10:20;;;;;;;11.65;6.07;;;;;;;;;;4999742;28;20030;-51
2023/06/12 01:12:46;;;;;;;8.80;5.32;;;;;;;;;;4998426;28;20038;-54
2023/06/12 01:15:13;;;;;;;10.82;5.70;;;;;;;;;;5007370;28;20400;-56
2023/06/12 01:17:41;;;;;;;8.32;5.45;;;;;;;;;;4996552;28;20033;-53
2023/06/12 01:20:11;;;;;;;8.57;5.18;;;;;;;;;;4999231;28;20034;-53
2023/06/12 01:23:15;;;;;;;7.88;5.45;;;;;;;;;;5006127;28;20030;-58
2023/06/12 01:25:56;;;;;;;8.07;5.95;;;;;;;;;;5001165;28;20430;-55
2023/06/12 01:28:43;;;;;;;7.63;5.93;;;;;;;;;;4992487;28;20157;-55
2023/06/12 01:31:25;;;;;;;7.40;5.18;;;;;;;;;;5017788;28;20041;-53
2023/06/12 01:34:02;;;;;;;8.23;5.28;;;;;;;;;;5010214;28;20038;-56
2023/06/12 01:36:32;;;;;;;8.57;5.40;;;;;;;;;;4994426;28;20061;-54
2023/06/12 01:39:00;;;;;;;7.63;5.32;;;;;;;;;;4994976;28;20069;-56
2023/06/12 01:41:28;;;;;;;9.50;5.50;;;;;;;;;;5011085;28;20050;-55
2023/06/12 01:43:53;;;;;;;9.60;5.20;;;;;;;;;;5010911;28;20113;-54
2023/06/12 01:46:19;;;;;;;7.20;5.30;;;;;;;;;;5004789;28;20102;-53
2023/06/12 01:48:44;;;;;;;7.57;5.30;;;;;;;;;;4999435;28;20045;-55
2023/06/12 01:51:10;;;;;;;16.10;5.25;;;;;;;;;;4999413;28;20041;-53
2023/06/12 01:53:35;;;;;;;8.77;5.32;;;;;;;;;;4991091;28;20530;-53
2023/06/12 01:56:01;;;;;;;8.75;5.45;;;;;;;;;;5006764;28;20344;-53
2023/06/12 01:58:27;;;;;;;7.05;5.30;;;;;;;;;;5012349;28;20072;-55
2023/06/12 02:00:53;;;;;;;8.43;5.40;;;;;;;;;;5023600;28;20041;-54
2023/06/12 02:03:22;;;;;;;9.63;5.50;;;;;;;;;;5011807;28;20045;-52
2023/06/12 02:05:48;;;;;;;7.05;5.28;;;;;;;;;;5003638;28;20304;-55
2023/06/12 02:08:14;;;;;;;7.93;5.32;;;;;;;;;;5008947;28;20038;-54
2023/06/12 02:10:39;;;;;;;8.52;5.30;;;;;;;;;;5024190;28;20083;-52
2023/06/12 02:13:05;;;;;;;8.38;5.20;;;;;;;;;;5013198;28;20030;-53
2023/06/12 02:15:31;;;;;;;9.25;5.60;;;;;;;;;;5009526;28;20037;-52
2023/06/12 02:17:56;;;;;;;9.13;5.40;;;;;;;;;;5001840;28;20109;-52
2023/06/12 02:20:22;;;;;;;7.97;5.20;;;;;;;;;;5008656;28;20385;-56
2023/06/12 02:22:47;;;;;;;7.20;5.32;;;;;;;;;;5008873;28;20136;-54
2023/06/12 02:25:13;;;;;;;8.70;5.00;;;;;;;;;;5014894;28;20022;-56
2023/06/12 02:27:38;;;;;;;10.50;5.15;;;;;;;;;;5009898;28;20022;-54
2023/06/12 02:30:04;;;;;;;8.02;5.50;;;;;;;;;;5012782;28;20041;-55
2023/06/12 02:32:33;;;;;;;7.35;5.10;;;;;;;;;;5012172;28;20470;-56
2023/06/12 02:35:00;;;;;;;9.55;5.55;;;;;;;;;;5014724;28;20034;-55
2023/06/12 02:37:27;;;;;;;8.52;5.05;;;;;;;;;;4996739;28;20066;-56
2023/06/12 02:39:53;;;;;;;7.30;5.05;;;;;;;;;;4995084;28;20475;-54
2023/06/12 02:42:18;;;;;;;7.13;5.38;;;;;;;;;;4994065;28;20065;-55
2023/06/12 02:44:45;;;;;;;7.53;5.38;;;;;;;;;;5004224;28;20033;-55
2023/06/12 02:47:10;;;;;;;6.68;5.07;;;;;;;;;;4998288;28;20038;-52
2023/06/12 02:49:37;;;;;;;8.45;5.28;;;;;;;;;;5027330;28;20532;-51
2023/06/12 02:52:03;;;;;;;8.57;5.20;;;;;;;;;;4999854;28;20038;-56
2023/06/12 02:54:29;;;;;;;9.07;5.30;;;;;;;;;;5015997;28;20026;-56
2023/06/12 02:56:55;;;;;;;6.68;5.40;;;;;;;;;;5016617;28;20108;-53
2023/06/12 02:59:23;;;;;;;8.85;5.57;;;;;;;;;;5003058;28;20164;-56
2023/06/12 03:01:48;;;;;;;7.57;5.47;;;;;;;;;;4991812;28;20079;-53
2023/06/12 03:04:19;;;;;;;7.43;5.50;;;;;;;;;;5000684;28;20502;-56
2023/06/12 03:06:45;;;;;;;8.88;5.47;;;;;;;;;;5013497;28;20332;-55
2023/06/12 03:09:12;;;;;;;7.35;5.03;;;;;;;;;;5005559;28;20049;-55
2023/06/12 03:11:38;;;;;;;7.72;5.45;;;;;;;;;;5011823;28;20057;-54
2023/06/12 03:14:05;;;;;;;7.35;5.30;;;;;;;;;;5013022;28;20475;-56
2023/06/12 03:16:32;;;;;;;10.20;5.82;;;;;;;;;;4999373;28;20033;-54
2023/06/12 03:18:57;;;;;;;7.63;5.13;;;;;;;;;;4995226;28;20038;-54
2023/06/12 03:21:23;;;;;;;9.45;5.30;;;;;;;;;;4993577;28;20388;-51
2023/06/12 03:23:49;;;;;;;7.90;5.22;;;;;;;;;;5019668;28;20052;-53
2023/06/12 03:26:15;;;;;;;13.60;5.20;;;;;;;;;;5030507;28;20037;-54
2023/06/12 03:28:41;;;;;;;6.95;5.13;;;;;;;;;;5015767;28;20037;-54
2023/06/12 03:31:06;;;;;;;8.63;5.60;;;;;;;;;;5000174;28;20041;-55
2023/06/12 03:33:32;;;;;;;9.63;5.50;;;;;;;;;;4994361;28;20033;-55
2023/06/12 03:35:57;;;;;;;8.80;5.55;;;;;;;;;;4992927;28;20057;-51
2023/06/12 03:38:23;;;;;;;8.32;5.68;;;;;;;;;;5002234;28;20037;-50
2023/06/12 03:40:48;;;;;;;8.45;5.70;;;;;;;;;;5003575;28;20120;-53
2023/06/12 03:43:14;;;;;;;7.80;5.60;;;;;;;;;;4993328;28;20061;-55
2023/06/12 03:45:39;;;;;;;7.35;5.57;;;;;;;;;;5009636;28;20030;-54
2023/06/12 03:48:05;;;;;;;7.60;5.60;;;;;;;;;;5010911;28;20038;-52
2023/06/12 03:50:30;;;;;;;8.80;5.95;;;;;;;;;;5020823;28;20414;-55
2023/06/12 03:52:56;;;;;;;8.60;5.63;;;;;;;;;;5014225;28;20030;-56
2023/06/12 03:55:23;;;;;;;8.35;5.93;;;;;;;;;;5009753;28;20057;-50
2023/06/12 03:57:50;;;;;;;10.70;6.00;;;;;;;;;;5017934;28;20048;-50
2023/06/12 04:00:16;;;;;;;7.72;6.07;;;;;;;;;;5011945;28;20034;-54
2023/06/12 04:02:42;;;;;;;7.88;6.13;;;;;;;;;;4994080;28;20160;-52
2023/06/12 04:05:08;;;;;;;14.50;6.13;;;;;;;;;;4998112;28;20072;-55
2023/06/12 04:07:36;;;;;;;10.10;6.20;;;;;;;;;;5007553;28;20029;-55
2023/06/12 04:10:03;;;;;;;9.30;6.05;;;;;;;;;;5001707;28;20532;-52
2023/06/12 04:12:29;;;;;;;10.38;5.95;;;;;;;;;;5001553;28;20052;-55
2023/06/12 04:14:55;;;;;;;8.52;5.75;;;;;;;;;;5008512;28;20026;-53
2023/06/12 04:17:21;;;;;;;9.88;5.93;;;;;;;;;;5003219;28;20041;-53
2023/06/12 04:19:48;;;;;;;8.02;5.97;;;;;;;;;;5001209;28;20033;-54
2023/06/12 04:22:15;;;;;;;9.52;5.75;;;;;;;;;;5011265;28;20041;-51
2023/06/12 04:24:42;;;;;;;9.88;6.00;;;;;;;;;;5005741;28;20058;-50
2023/06/12 04:27:09;;;;;;;12.10;6.32;;;;;;;;;;5008240;28;20042;-52
2023/06/12 04:29:37;;;;;;;7.90;5.93;;;;;;;;;;5005694;28;20490;-54
2023/06/12 04:32:07;;;;;;;6.90;5.65;;;;;;;;;;4993725;28;20070;-52
2023/06/12 04:34:45;;;;;;;9.45;6.05;;;;;;;;;;4994263;28;20068;-56
2023/06/12 04:37:13;;;;;;;8.70;5.82;;;;;;;;;;4992902;28;20387;-55
2023/06/12 04:39:39;;;;;;;8.85;6.20;;;;;;;;;;4992135;28;20043;-52
2023/06/12 04:42:07;;;;;;;9.43;6.80;;;;;;;;;;5005054;28;20034;-55
2023/06/12 04:44:34;;;;;;;8.07;6.15;;;;;;;;;;4994399;28;20030;-55
2023/06/12 04:47:10;;;;;;;9.93;6.72;;;;;;;;;;4996778;28;20046;-54
2023/06/12 04:49:43;;;;;;;12.13;7.13;;;;;;;;;;4991685;28;20050;-56
2023/06/12 04:52:09;;;;;;;9.27;6.28;;;;;;;;;;5001209;28;20466;-53
2023/06/12 04:54:41;;;;;;;9.30;6.70;;;;;;;;;;5003410;28;20040;-55
2023/06/12 04:57:16;;;;;;;9.38;6.50;;;;;;;;;;5009467;28;20034;-55
2023/06/12 04:59:44;;;;;;;8.43;6.53;;;;;;;;;;4999898;28;20062;-55
2023/06/12 05:02:11;;;;;;;8.65;6.45;;;;;;;;;;5006358;28;20107;-53
2023/06/12 05:04:37;;;;;;;14.55;7.00;;;;;;;;;;4994993;28;20033;-56
2023/06/12 05:07:13;;;;;;;11.18;6.53;;;;;;;;;;4992595;28;20065;-56
2023/06/12 05:09:39;;;;;;;10.35;6.80;;;;;;;;;;4992539;28;20022;-57
2023/06/12 05:12:06;;;;;;;9.57;7.15;;;;;;;;;;5001471;28;20053;-55
2023/06/12 05:14:33;;;;;;;11.68;7.05;;;;;;;;;;5007673;28;20034;-55
2023/06/12 05:17:00;;;;;;;12.10;7.47;;;;;;;;;;5005100;28;20041;-58
2023/06/12 05:19:25;;;;;;;11.75;7.40;;;;;;;;;;5003460;28;20026;-54
2023/06/12 05:21:51;;;;;;;10.32;7.15;;;;;;;;;;5001159;28;20092;-56
2023/06/12 05:24:17;;;;;;;11.48;7.03;;;;;;;;;;5005344;28;20505;-56
2023/06/12 05:26:42;;;;;;;11.73;7.30;;;;;;;;;;5008591;28;20564;-57
2023/06/12 05:29:08;;;;;;;11.65;7.50;;;;;;;;;;5002711;28;20506;-56
2023/06/12 05:31:33;;;;;;;10.73;7.40;;;;;;;;;;5004235;28;20368;-54
2023/06/12 05:33:59;;;;;;;11.68;7.22;;;;;;;;;;5013931;28;20565;-51
2023/06/12 05:36:24;;;;;;;12.18;7.25;;;;;;;;;;5005406;28;20028;-57
2023/06/12 05:38:50;;;;;;;11.85;7.05;;;;;;;;;;5021137;28;20037;-53
2023/06/12 05:41:15;;;;;;;10.77;7.10;;;;;;;;;;5028580;28;20394;-57
2023/06/12 05:43:44;;;;;;;11.43;7.03;;;;;;;;;;5018533;28;20386;-54
2023/06/12 05:46:10;;;;;;;14.32;7.68;;;;;;;;;;5009551;28;20083;-55
2023/06/12 05:48:36;;;;;;;12.25;6.93;;;;;;;;;;5004245;28;20037;-51
2023/06/12 05:51:02;;;;;;;10.20;7.10;;;;;;;;;;5012819;28;20068;-53
2023/06/12 05:53:28;;;;;;;11.63;7.18;;;;;;;;;;5014787;28;20030;-54
2023/06/12 05:55:53;;;;;;;10.75;6.88;;;;;;;;;;5014075;28;20752;-57
2023/06/12 05:58:20;;;;;;;10.07;7.28;;;;;;;;;;5015385;28;20037;-57
2023/06/12 06:00:47;;;;;;;13.55;7.15;;;;;;;;;;5014386;28;20038;-59
2023/06/12 06:03:12;;;;;;;9.10;6.88;;;;;;;;;;5015061;28;20038;-54
2023/06/12 06:05:38;;;;;;;13.15;7.22;;;;;;;;;;5002494;28;20452;-57
2023/06/12 06:08:04;;;;;;;11.60;6.90;;;;;;;;;;5020819;28;20033;-59
2023/06/12 06:10:29;;;;;;;13.10;6.97;;;;;;;;;;5033742;28;20036;-56
2023/06/12 06:12:55;;;;;;;9.55;6.63;;;;;;;;;;5016487;28;20041;-58
2023/06/12 06:15:20;;;;;;;9.27;6.80;;;;;;;;;;5014921;28;20030;-55
2023/06/12 06:17:46;;;;;;;13.25;7.13;;;;;;;;;;5013813;28;20029;-58
2023/06/12 06:20:12;;;;;;;15.02;7.00;;;;;;;;;;5014598;28;20470;-57
2023/06/12 06:22:37;;;;;;;11.35;7.35;;;;;;;;;;5002498;28;20034;-57
2023/06/12 06:25:03;;;;;;;11.13;6.95;;;;;;;;;;5003780;28;20022;-56
2023/06/12 06:27:30;;;;;;;8.77;6.88;;;;;;;;;;5014996;28;20057;-59
2023/06/12 06:29:55;;;;;;;8.35;6.70;;;;;;;;;;5013535;28;20026;-53
2023/06/12 06:32:21;;;;;;;10.63;6.90;;;;;;;;;;5014238;28;20445;-56
2023/06/12 06:34:47;;;;;;;9.57;6.30;;;;;;;;;;5012759;28;20034;-56
2023/06/12 06:37:12;;;;;;;10.60;7.40;;;;;;;;;;5023976;28;20033;-52
2023/06/12 06:39:40;;;;;;;11.68;6.80;;;;;;;;;;5004419;28;20053;-57
2023/06/12 06:42:05;;;;;;;9.25;6.40;;;;;;;;;;5009603;28;20500;-56
2023/06/12 06:44:31;;;;;;;10.55;6.85;;;;;;;;;;5034295;28;20029;-57
2023/06/12 06:46:56;;;;;;;9.57;6.72;;;;;;;;;;5013831;28;20356;-58
2023/06/12 06:49:22;;;;;;;9.48;6.05;;;;;;;;;;5013954;28;20457;-56
2023/06/12 06:51:48;;;;;;;13.02;6.70;;;;;;;;;;5013172;28;20042;-53
2023/06/12 06:54:13;;;;;;;12.57;6.63;;;;;;;;;;5014326;28;20030;-58
2023/06/12 06:56:39;;;;;;;10.07;6.10;;;;;;;;;;5006094;28;20072;-58
2023/06/12 06:59:04;;;;;;;11.25;6.35;;;;;;;;;;5013282;28;20376;-57
2023/06/12 07:01:33;;;;;;;9.05;6.22;;;;;;;;;;5012093;28;20980;-58
2023/06/12 07:03:58;;;;;;;9.43;6.43;;;;;;;;;;5007578;28;20083;-58
2023/06/12 07:06:24;;;;;;;11.25;6.18;;;;;;;;;;5010716;28;20116;-59
2023/06/12 07:08:50;;;;;;;10.05;6.43;;;;;;;;;;4992583;28;20121;-54
2023/06/12 07:11:16;;;;;;;9.60;6.00;;;;;;;;;;4994294;28;20041;-57
2023/06/12 07:13:42;;;;;;;8.25;6.13;;;;;;;;;;4997145;28;20077;-58
2023/06/12 07:16:07;;;;;;;9.23;6.00;;;;;;;;;;5011107;28;20080;-57
2023/06/12 07:18:33;;;;;;;8.85;6.03;;;;;;;;;;5008802;28;20122;-57
2023/06/12 07:20:58;;;;;;;9.18;6.20;;;;;;;;;;5006662;28;20044;-57
2023/06/12 07:23:24;;;;;;;11.15;5.72;;;;;;;;;;5005005;28;20097;-52
2023/06/12 07:25:50;;;;;;;8.32;5.68;;;;;;;;;;4994750;28;20041;-58
2023/06/12 07:28:15;;;;;;;10.73;5.78;;;;;;;;;;5013444;28;20160;-58
2023/06/12 07:30:40;;;;;;;10.95;6.10;;;;;;;;;;5012155;28;20088;-57
2023/06/12 07:33:06;;;;;;;7.65;5.60;;;;;;;;;;5020765;28;20036;-56
2023/06/12 07:35:31;;;;;;;7.30;5.75;;;;;;;;;;5033014;28;20113;-53
2023/06/12 07:37:57;;;;;;;9.52;5.55;;;;;;;;;;5015057;28;20504;-54
2023/06/12 07:40:22;;;;;;;9.00;6.03;;;;;;;;;;5008457;28;20433;-53
2023/06/12 07:42:48;;;;;;;8.18;5.88;;;;;;;;;;5012216;28;20036;-54
2023/06/12 07:45:14;;;;;;;10.07;5.88;;;;;;;;;;5012982;28;20584;-59
2023/06/12 07:47:39;;;;;;;8.82;5.75;;;;;;;;;;5003127;28;20022;-52
2023/06/12 07:50:05;;;;;;;9.70;5.60;;;;;;;;;;5008996;28;20462;-55
2023/06/12 07:52:31;;;;;;;7.88;5.63;;;;;;;;;;5023185;28;20474;-58
2023/06/12 07:54:57;;;;;;;8.80;5.45;;;;;;;;;;5019242;28;20045;-57
2023/06/12 07:57:23;;;;;;;8.32;5.10;;;;;;;;;;5018196;28;20394;-56
2023/06/12 07:59:48;;;;;;;7.80;5.60;;;;;;;;;;5024804;28;20437;-55
2023/06/12 08:02:14;;;;;;;8.98;5.50;;;;;;;;;;5021005;28;20045;-53
2023/06/12 08:04:41;;;;;;;10.95;5.85;;;;;;;;;;5016070;28;20053;-58
2023/06/12 08:07:10;;;;;;;8.70;5.60;;;;;;;;;;5017391;28;20030;-57
2023/06/12 08:09:37;;;;;;;8.00;5.28;;;;;;;;;;5013116;28;20034;-51
2023/06/12 08:12:03;;;;;;;9.90;5.10;;;;;;;;;;5005740;28;20041;-57
2023/06/12 08:14:28;;;;;;;9.95;6.57;;;;;;;;;;5012768;28;20356;-56
2023/06/12 08:16:54;;;;;;;9.07;5.65;;;;;;;;;;5011609;28;20037;-56
2023/06/12 08:19:19;;;;;;;8.05;5.45;;;;;;;;;;5012537;28;20434;-54
2023/06/12 08:21:45;;;;;;;9.32;5.53;;;;;;;;;;5000619;28;20027;-58
2023/06/12 08:24:12;;;;;;;7.35;5.10;;;;;;;;;;5021084;28;20470;-57
2023/06/12 08:26:38;;;;;;;6.47;4.82;;;;;;;;;;5005403;28;20038;-57
2023/06/12 08:29:04;;;;;;;6.25;5.28;;;;;;;;;;4991924;28;20656;-58
2023/06/12 08:31:33;;;;;;;7.55;5.65;;;;;;;;;;4991712;28;20035;-58
2023/06/12 08:33:58;;;;;;;6.45;5.30;;;;;;;;;;5011235;28;20030;-59
2023/06/12 08:36:25;;;;;;;9.65;5.70;;;;;;;;;;5012510;28;20030;-55
2023/06/12 08:38:50;;;;;;;9.27;5.95;;;;;;;;;;5007865;28;20033;-51
2023/06/12 08:41:18;;;;;;;8.30;5.32;;;;;;;;;;5021052;28;20055;-56
2023/06/12 08:43:46;;;;;;;8.35;5.63;;;;;;;;;;5013647;28;20030;-59
2023/06/12 08:46:12;;;;;;;8.25;5.55;;;;;;;;;;5011421;28;20026;-56
2023/06/12 08:48:37;;;;;;;6.68;5.40;;;;;;;;;;5001003;28;20042;-57
2023/06/12 08:51:05;;;;;;;7.85;5.78;;;;;;;;;;4995521;28;20053;-56
2023/06/12 08:53:33;;;;;;;8.07;5.40;;;;;;;;;;5006409;28;20030;-56
2023/06/12 08:55:59;;;;;;;9.65;6.10;;;;;;;;;;5003423;28;20390;-56
2023/06/12 08:58:24;;;;;;;8.15;5.57;;;;;;;;;;5004461;28;20042;-57
2023/06/12 09:00:50;;;;;;;7.60;5.35;;;;;;;;;;4991468;28;20034;-57
2023/06/12 09:03:15;;;;;;;8.35;5.63;;;;;;;;;;5001553;28;20026;-58
2023/06/12 09:05:42;;;;;;;6.80;5.55;;;;;;;;;;5011871;28;20084;-56
2023/06/12 09:08:07;;;;;;;8.55;5.30;;;;;;;;;;5010963;28;20065;-55
2023/06/12 09:10:34;;;;;;;11.27;5.35;;;;;;;;;;5007187;28;20444;-57
2023/06/12 09:13:04;;;;;;;9.32;5.53;;;;;;;;;;5001150;28;20038;-59
2023/06/12 09:15:30;;;;;;;6.55;5.07;;;;;;;;;;5025368;28;20041;-57
2023/06/12 09:17:56;;;;;;;7.68;5.53;;;;;;;;;;5027242;28;20048;-56
2023/06/12 09:20:30;;;;;;;7.30;5.47;;;;;;;;;;5025985;28;20034;-58
2023/06/12 09:23:04;;;;;;;7.18;5.50;;;;;;;;;;5016964;28;20378;-54
2023/06/12 09:25:37;;;;;;;9.02;5.47;;;;;;;;;;5024389;28;20037;-56
2023/06/12 09:28:03;;;;;;;9.40;5.70;;;;;;;;;;5004216;28;20117;-55
2023/06/12 09:30:32;;;;;;;10.02;5.63;;;;;;;;;;4999628;28;20022;-58
2023/06/12 09:33:01;;;;;;;8.60;5.65;;;;;;;;;;5018710;28;20061;-49
2023/06/12 09:35:26;;;;;;;9.85;5.43;;;;;;;;;;5011569;28;20075;-57
2023/06/12 09:37:52;;;;;;;7.72;5.78;;;;;;;;;;5010706;28;20122;-51
2023/06/12 09:40:18;;;;;;;9.30;5.80;;;;;;;;;;5011164;28;20086;-52
2023/06/12 09:42:45;;;;;;;7.25;5.60;;;;;;;;;;5010683;28;20040;-57
2023/06/12 09:45:23;;;;;;;10.98;5.43;;;;;;;;;;5010684;28;20037;-57
2023/06/12 09:47:51;;;;;;;6.65;5.65;;;;;;;;;;4996714;28;20120;-58
2023/06/12 09:50:18;;;;;;;12.93;5.90;;;;;;;;;;5028996;28;20025;-58
2023/06/12 09:52:46;;;;;;;9.35;5.95;;;;;;;;;;5026304;28;20044;-58
2023/06/12 09:55:13;;;;;;;8.85;5.60;;;;;;;;;;5010904;28;20036;-57
2023/06/12 09:57:41;;;;;;;9.82;5.53;;;;;;;;;;5010352;28;20034;-58
2023/06/12 10:00:11;;;;;;;7.70;5.80;;;;;;;;;;5010581;28;20034;-55
2023/06/12 10:02:40;;;;;;;7.40;5.55;;;;;;;;;;5007527;28;20084;-57
2023/06/12 10:05:10;;;;;;;8.40;6.25;;;;;;;;;;5010675;28;20167;-54
2023/06/12 10:07:44;;;;;;;9.55;5.55;;;;;;;;;;5011228;28;20117;-55
2023/06/12 10:10:10;;;;;;;11.77;5.60;;;;;;;;;;5010563;28;20066;-56
2023/06/12 10:12:38;;;;;;;8.10;6.00;;;;;;;;;;5000956;28;20046;-55
2023/06/12 10:15:04;;;;;;;8.88;5.85;;;;;;;;;;5006459;28;20483;-55
2023/06/12 10:17:30;;;;;;;10.00;6.03;;;;;;;;;;5012702;28;20037;-57
2023/06/12 10:19:57;;;;;;;7.95;5.75;;;;;;;;;;5007892;28;20041;-57
2023/06/12 10:22:22;;;;;;;9.18;6.18;;;;;;;;;;5010488;28;20032;-54
2023/06/12 10:24:48;;;;;;;8.70;6.22;;;;;;;;;;5033470;28;20026;-57
2023/06/12 10:27:15;;;;;;;9.60;6.20;;;;;;;;;;5028713;28;20479;-57
2023/06/12 10:29:42;;;;;;;9.00;5.70;;;;;;;;;;5014645;28;20136;-54
2023/06/12 10:32:14;;;;;;;9.63;6.07;;;;;;;;;;5009936;28;20056;-49
2023/06/12 10:34:48;;;;;;;7.40;6.07;;;;;;;;;;5007068;28;20034;-52
2023/06/12 10:37:42;;;;;;;8.75;6.07;;;;;;;;;;5000165;28;20026;-51
2023/06/12 10:40:18;;;;;;;8.43;6.13;;;;;;;;;;5014012;28;20651;-56
2023/06/12 10:43:01;;;;;;;10.10;5.95;;;;;;;;;;5014911;28;20026;-57
2023/06/12 10:45:32;;;;;;;9.75;5.68;;;;;;;;;;5014342;28;20061;-57
2023/06/12 10:48:06;;;;;;;8.45;5.97;;;;;;;;;;5012228;28;20360;-58
2023/06/12 10:50:42;;;;;;;6.63;5.70;;;;;;;;;;5013991;28;20386;-57
2023/06/12 10:53:16;;;;;;;8.98;6.00;;;;;;;;;;5013048;28;20658;-58
2023/06/12 10:55:43;;;;;;;8.77;6.00;;;;;;;;;;4994729;28;20053;-58
2023/06/12 10:58:13;;;;;;;8.23;5.97;;;;;;;;;;5010787;28;20045;-55
2023/06/12 11:00:49;;;;;;;10.13;6.00;;;;;;;;;;5013301;28;20531;-58
2023/06/12 11:03:21;;;;;;;7.88;5.80;;;;;;;;;;5012267;28;20434;-57
2023/06/12 11:06:00;;;;;;;7.85;5.22;;;;;;;;;;5014119;28;20086;-56
2023/06/12 11:08:30;;;;;;;9.38;5.60;;;;;;;;;;5013957;28;20125;-58
2023/06/12 11:10:55;;;;;;;;;;;;;;;;;;5007023;28;20038;-60
2023/06/12 11:13:25;;;;;;;7.60;5.00;;;;;;;;;;5006434;28;19939;-58
2023/06/12 11:15:52;;;;;;;5.28;4.75;;;;;;;;;;5012641;28;20030;-57
2023/06/12 11:18:18;;;;;;;6.15;5.03;;;;;;;;;;5013827;28;20034;-54
2023/06/12 11:20:51;;;;;;;7.75;5.07;;;;;;;;;;5013678;28;20037;-57
2023/06/12 11:23:16;;;;;;;6.00;5.40;;;;;;;;;;5006205;28;20435;-58
2023/06/12 11:25:44;;;;;;;6.68;5.15;;;;;;;;;;4996526;28;20030;-57
2023/06/12 11:28:12;;;;;;;6.43;5.13;;;;;;;;;;4993172;28;20693;-57
2023/06/12 11:30:38;;;;;;;8.00;5.07;;;;;;;;;;4998807;28;20033;-57
2023/06/12 11:33:12;;;;;;;7.80;5.07;;;;;;;;;;5006902;28;20053;-58
2023/06/12 11:35:47;;;;;;;6.75;5.00;;;;;;;;;;5011782;28;20033;-53
2023/06/12 11:38:16;;;;;;;7.97;4.90;;;;;;;;;;5013255;28;20557;-54
2023/06/12 11:40:43;;;;;;;6.40;4.70;;;;;;;;;;5029352;28;20044;-57
2023/06/12 11:43:08;;;;;;;6.32;5.28;;;;;;;;;;5030723;28;20069;-57
2023/06/12 11:45:41;;;;;;;5.97;5.10;;;;;;;;;;5005739;28;20061;-57
2023/06/12 11:48:12;;;;;;;8.25;5.00;;;;;;;;;;5003420;28;20547;-57
2023/06/12 11:50:37;;;;;;;9.40;5.47;;;;;;;;;;4993600;28;20027;-57
2023/06/12 11:53:03;;;;;;;9.35;5.80;;;;;;;;;;5000051;28;20036;-58
2023/06/12 11:55:32;;;;;;;7.60;5.53;;;;;;;;;;5006115;28;20038;-58
2023/06/12 11:58:01;;;;;;;7.75;5.47;;;;;;;;;;4998766;28;20398;-61
2023/06/12 12:00:30;;;;;;;6.88;5.65;;;;;;;;;;5009937;28;20092;-62
2023/06/12 12:02:58;;;;;;;11.45;5.35;;;;;;;;;;5005412;28;20037;-60
2023/06/12 12:05:24;;;;;;;7.55;5.50;;;;;;;;;;5004861;28;20089;-61
2023/06/12 12:07:57;;;;;;;7.30;5.55;;;;;;;;;;5010625;28;20041;-61
2023/06/12 12:10:27;;;;;;;7.18;5.57;;;;;;;;;;5003069;28;20033;-61
2023/06/12 12:12:59;;;;;;;10.55;5.78;;;;;;;;;;5010977;28;20034;-60
2023/06/12 12:15:26;;;;;;;7.88;6.05;;;;;;;;;;5012531;28;20091;-61
2023/06/12 12:17:52;;;;;;;8.93;5.80;;;;;;;;;;5012657;28;20034;-61
2023/06/12 12:20:25;;;;;;;9.90;5.72;;;;;;;;;;4994972;28;20047;-61
2023/06/12 12:22:52;;;;;;;9.38;5.60;;;;;;;;;;5022809;28;20048;-60
2023/06/12 12:25:23;;;;;;;10.45;5.55;;;;;;;;;;5011805;28;20076;-62
2023/06/12 12:27:51;;;;;;;10.88;5.75;;;;;;;;;;4992813;28;20026;-60
2023/06/12 12:30:18;;;;;;;7.05;5.30;;;;;;;;;;4992375;28;20030;-62
2023/06/12 12:32:52;;;;;;;7.85;5.18;;;;;;;;;;5011949;28;20030;-62
2023/06/12 12:35:19;;;;;;;8.30;5.32;;;;;;;;;;5010843;28;20034;-61
2023/06/12 12:37:45;;;;;;;11.40;5.53;;;;;;;;;;5010722;28;20064;-62
2023/06/12 12:40:13;;;;;;;9.13;5.85;;;;;;;;;;5011903;28;20535;-61
2023/06/12 12:42:40;;;;;;;12.68;5.68;;;;;;;;;;5012207;28;20060;-61
2023/06/12 12:45:07;;;;;;;10.35;5.60;;;;;;;;;;5011428;28;20127;-61
2023/06/12 12:47:33;;;;;;;10.52;5.90;;;;;;;;;;5012095;28;20104;-61
2023/06/12 12:49:59;;;;;;;8.80;5.68;;;;;;;;;;5011249;28;20038;-61
2023/06/12 12:52:24;;;;;;;9.63;5.85;;;;;;;;;;5006647;28;20109;-60
2023/06/12 12:54:50;;;;;;;6.95;5.70;;;;;;;;;;4998680;28;20390;-61
2023/06/12 12:57:16;;;;;;;8.15;6.05;;;;;;;;;;5012271;28;20534;-61
2023/06/12 12:59:41;;;;;;;7.47;5.55;;;;;;;;;;5011735;28;20113;-60
2023/06/12 13:02:07;;;;;;;7.43;5.45;;;;;;;;;;4996957;28;20022;-61
2023/06/12 13:04:32;;;;;;;8.27;5.78;;;;;;;;;;4990985;28;20031;-60
2023/06/12 13:06:58;;;;;;;9.27;5.75;;;;;;;;;;5002944;28;20038;-60
2023/06/12 13:09:23;;;;;;;9.23;5.57;;;;;;;;;;5008684;28;20390;-60
2023/06/12 13:11:49;;;;;;;6.85;5.68;;;;;;;;;;5001929;28;20450;-60
2023/06/12 13:14:14;;;;;;;8.52;5.80;;;;;;;;;;5028011;28;20033;-61
2023/06/12 13:16:40;;;;;;;9.40;5.72;;;;;;;;;;5023355;28;20109;-60
2023/06/12 13:19:06;;;;;;;6.15;5.43;;;;;;;;;;5009822;28;20401;-60
2023/06/12 13:21:31;;;;;;;6.50;5.50;;;;;;;;;;5011610;28;20049;-60
2023/06/12 13:23:56;;;;;;;6.47;5.75;;;;;;;;;;5009686;28;20030;-60
2023/06/12 13:26:23;;;;;;;8.23;5.72;;;;;;;;;;5009800;28;20390;-61
2023/06/12 13:28:49;;;;;;;8.13;5.63;;;;;;;;;;4995400;28;20030;-61
2023/06/12 13:31:15;;;;;;;7.57;5.50;;;;;;;;;;5011938;28;20030;-62
2023/06/12 13:33:40;;;;;;;8.63;5.35;;;;;;;;;;5011481;28;20073;-62
2023/06/12 13:36:07;;;;;;;9.48;5.68;;;;;;;;;;5009559;28;20057;-61
2023/06/12 13:38:32;;;;;;;10.55;5.78;;;;;;;;;;5009527;28;20038;-61
2023/06/12 13:40:58;;;;;;;7.50;5.78;;;;;;;;;;5009860;28;20127;-61
2023/06/12 13:43:23;;;;;;;6.93;5.30;;;;;;;;;;5010450;28;20596;-61
2023/06/12 13:45:49;;;;;;;10.13;5.65;;;;;;;;;;5004916;28;20498;-61
2023/06/12 13:48:16;;;;;;;9.55;5.95;;;;;;;;;;5004330;28;20289;-61
2023/06/12 13:50:41;;;;;;;9.52;5.50;;;;;;;;;;5024281;28;20390;-61
2023/06/12 13:53:07;;;;;;;6.72;5.40;;;;;;;;;;5015839;28;20478;-61
2023/06/12 13:55:32;;;;;;;9.38;5.40;;;;;;;;;;5001591;28;20034;-60
2023/06/12 13:57:58;;;;;;;11.45;5.60;;;;;;;;;;5015018;28;20037;-59
2023/06/12 14:00:23;;;;;;;9.45;5.60;;;;;;;;;;5020463;28;20065;-60
2023/06/12 14:02:51;;;;;;;7.53;5.30;;;;;;;;;;5004841;28;20045;-60
2023/06/12 14:05:17;;;;;;;10.60;5.40;;;;;;;;;;5003761;28;20058;-60
2023/06/12 14:07:43;;;;;;;7.75;5.35;;;;;;;;;;5000105;28;20058;-61
2023/06/12 14:10:09;;;;;;;8.00;5.28;;;;;;;;;;4994821;28;20030;-61
2023/06/12 14:12:35;;;;;;;8.52;5.18;;;;;;;;;;5008155;28;20038;-62
2023/06/12 14:15:01;;;;;;;6.95;5.70;;;;;;;;;;5014087;28;20040;-61
2023/06/12 14:17:27;;;;;;;6.78;5.22;;;;;;;;;;5012383;28;20066;-61
2023/06/12 14:19:53;;;;;;;7.68;5.40;;;;;;;;;;4995426;28;20459;-60
2023/06/12 14:22:18;;;;;;;6.03;5.10;;;;;;;;;;5012295;28;20037;-60
2023/06/12 14:24:43;;;;;;;7.20;5.10;;;;;;;;;;5014847;28;20100;-61
2023/06/12 14:27:09;;;;;;;7.60;5.10;;;;;;;;;;5013798;28;20030;-61
2023/06/12 14:29:34;;;;;;;7.78;5.30;;;;;;;;;;5014833;28;20430;-61
2023/06/12 14:32:00;;;;;;;6.70;5.18;;;;;;;;;;5007603;28;20037;-60
2023/06/12 14:34:25;;;;;;;9.13;5.22;;;;;;;;;;5012442;28;20073;-60
2023/06/12 14:36:51;;;;;;;7.35;5.07;;;;;;;;;;5000579;28;20034;-60
2023/06/12 14:39:16;;;;;;;8.30;5.10;;;;;;;;;;5031142;28;20026;-60
2023/06/12 14:41:42;;;;;;;7.30;5.30;;;;;;;;;;5030493;28;20025;-62